sensor_id;sensor_type;location;lat;lon;timestamp;P1;durP1;ratioP1;P2;durP2;ratioP2
10715;SDS011;5409;42.620;23.316;2023-04-24T00:01:00;11.45;;;6.53;;
10715;SDS011;5409;42.620;23.316;2023-04-24T00:03:27;9.52;;;6.80;;
10715;SDS011;5409;42.620;23.316;2023-04-24T00:05:54;7.90;;;6.13;;
10715;SDS011;5409;42.620;23.316;2023-04-24T00:08:22;8.77;;;6.15;;
10715;SDS011;5409;42.620;23.316;2023-04-24T00:10:49;7.75;;;6.20;;
10715;SDS011;5409;42.620;23.316;2023-04-24T00:13:17;5.93;;;5.13;;
10715;SDS011;5409;42.620;23.316;2023-04-24T00:15:44;5.85;;;5.25;;
10715;SDS011;5409;42.620;23.316;2023-04-24T00:18:11;6.78;;;6.07;;
10715;SDS011;5409;42.620;23.316;2023-04-24T00:20:38;10.05;;;7.38;;
10715;SDS011;5409;42.620;23.316;2023-04-24T00:23:05;7.93;;;5.93;;
10715;SDS011;5409;42.620;23.316;2023-04-24T00:25:33;15.30;;;9.30;;
10715;SDS011;5409;42.620;23.316;2023-04-24T00:28:00;10.38;;;7.57;;
10715;SDS011;5409;42.620;23.316;2023-04-24T00:30:27;7.10;;;6.15;;
10715;SDS011;5409;42.620;23.316;2023-04-24T00:32:54;9.25;;;5.75;;
10715;SDS011;5409;42.620;23.316;2023-04-24T00:35:20;8.00;;;6.00;;
10715;SDS011;5409;42.620;23.316;2023-04-24T00:37:48;7.47;;;5.88;;
10715;SDS011;5409;42.620;23.316;2023-04-24T00:40:15;7.32;;;5.93;;
10715;SDS011;5409;42.620;23.316;2023-04-24T00:42:43;7.32;;;5.60;;
10715;SDS011;5409;42.620;23.316;2023-04-24T00:45:10;5.88;;;4.95;;
10715;SDS011;5409;42.620;23.316;2023-04-24T00:47:38;7.63;;;6.53;;
10715;SDS011;5409;42.620;23.316;2023-04-24T00:50:05;10.48;;;7.80;;
10715;SDS011;5409;42.620;23.316;2023-04-24T00:52:33;7.78;;;6.10;;
10715;SDS011;5409;42.620;23.316;2023-04-24T00:55:01;11.63;;;8.15;;
10715;SDS011;5409;42.620;23.316;2023-04-24T00:57:28;10.35;;;6.85;;
10715;SDS011;5409;42.620;23.316;2023-04-24T00:59:56;9.45;;;6.38;;
10715;SDS011;5409;42.620;23.316;2023-04-24T01:02:23;9.35;;;5.93;;
10715;SDS011;5409;42.620;23.316;2023-04-24T01:04:51;8.98;;;5.57;;
10715;SDS011;5409;42.620;23.316;2023-04-24T01:07:18;6.55;;;5.57;;
10715;SDS011;5409;42.620;23.316;2023-04-24T01:09:46;9.70;;;5.43;;
10715;SDS011;5409;42.620;23.316;2023-04-24T01:12:16;6.13;;;5.53;;
10715;SDS011;5409;42.620;23.316;2023-04-24T01:14:43;6.15;;;5.55;;
10715;SDS011;5409;42.620;23.316;2023-04-24T01:17:12;5.97;;;5.38;;
10715;SDS011;5409;42.620;23.316;2023-04-24T01:19:39;8.82;;;5.93;;
10715;SDS011;5409;42.620;23.316;2023-04-24T01:22:11;9.32;;;6.60;;
10715;SDS011;5409;42.620;23.316;2023-04-24T01:24:39;7.30;;;6.53;;
10715;SDS011;5409;42.620;23.316;2023-04-24T01:27:06;9.48;;;6.45;;
10715;SDS011;5409;42.620;23.316;2023-04-24T01:29:33;8.18;;;7.38;;
10715;SDS011;5409;42.620;23.316;2023-04-24T01:32:00;11.55;;;7.85;;
10715;SDS011;5409;42.620;23.316;2023-04-24T01:34:27;9.07;;;7.47;;
10715;SDS011;5409;42.620;23.316;2023-04-24T01:36:54;12.02;;;8.95;;
10715;SDS011;5409;42.620;23.316;2023-04-24T01:39:22;12.30;;;9.52;;
10715;SDS011;5409;42.620;23.316;2023-04-24T01:41:50;14.68;;;11.80;;
10715;SDS011;5409;42.620;23.316;2023-04-24T01:44:17;13.05;;;10.20;;
10715;SDS011;5409;42.620;23.316;2023-04-24T01:46:44;12.95;;;10.75;;
10715;SDS011;5409;42.620;23.316;2023-04-24T01:49:11;13.40;;;10.85;;
10715;SDS011;5409;42.620;23.316;2023-04-24T01:51:38;13.88;;;10.30;;
10715;SDS011;5409;42.620;23.316;2023-04-24T01:54:05;11.63;;;10.35;;
10715;SDS011;5409;42.620;23.316;2023-04-24T01:56:34;13.82;;;11.15;;
10715;SDS011;5409;42.620;23.316;2023-04-24T01:59:01;16.70;;;10.93;;
10715;SDS011;5409;42.620;23.316;2023-04-24T02:01:33;14.70;;;11.38;;
10715;SDS011;5409;42.620;23.316;2023-04-24T02:04:01;14.70;;;10.50;;
10715;SDS011;5409;42.620;23.316;2023-04-24T02:06:27;15.43;;;10.90;;
10715;SDS011;5409;42.620;23.316;2023-04-24T02:08:56;17.15;;;10.77;;
10715;SDS011;5409;42.620;23.316;2023-04-24T02:11:22;12.68;;;10.32;;
10715;SDS011;5409;42.620;23.316;2023-04-24T02:13:51;16.60;;;9.93;;
10715;SDS011;5409;42.620;23.316;2023-04-24T02:16:17;12.85;;;9.77;;
10715;SDS011;5409;42.620;23.316;2023-04-24T02:18:44;13.35;;;9.27;;
10715;SDS011;5409;42.620;23.316;2023-04-24T02:21:11;11.93;;;10.27;;
10715;SDS011;5409;42.620;23.316;2023-04-24T02:23:38;13.60;;;9.95;;
10715;SDS011;5409;42.620;23.316;2023-04-24T02:26:04;14.07;;;9.82;;
10715;SDS011;5409;42.620;23.316;2023-04-24T02:28:32;10.55;;;9.20;;
10715;SDS011;5409;42.620;23.316;2023-04-24T02:31:00;11.82;;;9.95;;
10715;SDS011;5409;42.620;23.316;2023-04-24T02:33:26;11.15;;;9.60;;
10715;SDS011;5409;42.620;23.316;2023-04-24T02:35:53;13.80;;;9.48;;
10715;SDS011;5409;42.620;23.316;2023-04-24T02:38:20;13.98;;;9.80;;
10715;SDS011;5409;42.620;23.316;2023-04-24T02:40:47;12.02;;;9.70;;
10715;SDS011;5409;42.620;23.316;2023-04-24T02:43:13;13.52;;;9.02;;
10715;SDS011;5409;42.620;23.316;2023-04-24T02:45:40;10.60;;;9.15;;
10715;SDS011;5409;42.620;23.316;2023-04-24T02:48:08;12.15;;;9.68;;
10715;SDS011;5409;42.620;23.316;2023-04-24T02:50:35;10.02;;;8.57;;
10715;SDS011;5409;42.620;23.316;2023-04-24T02:53:01;11.45;;;9.50;;
10715;SDS011;5409;42.620;23.316;2023-04-24T02:55:28;10.15;;;8.68;;
10715;SDS011;5409;42.620;23.316;2023-04-24T02:57:55;12.88;;;9.55;;
10715;SDS011;5409;42.620;23.316;2023-04-24T03:00:22;11.80;;;9.85;;
10715;SDS011;5409;42.620;23.316;2023-04-24T03:02:49;11.93;;;9.52;;
10715;SDS011;5409;42.620;23.316;2023-04-24T03:05:17;13.32;;;9.80;;
10715;SDS011;5409;42.620;23.316;2023-04-24T03:07:44;10.27;;;9.15;;
10715;SDS011;5409;42.620;23.316;2023-04-24T03:10:11;14.82;;;10.30;;
10715;SDS011;5409;42.620;23.316;2023-04-24T03:12:38;10.75;;;9.63;;
10715;SDS011;5409;42.620;23.316;2023-04-24T03:15:05;13.43;;;9.68;;
10715;SDS011;5409;42.620;23.316;2023-04-24T03:17:32;14.13;;;10.07;;
10715;SDS011;5409;42.620;23.316;2023-04-24T03:20:00;14.38;;;10.02;;
10715;SDS011;5409;42.620;23.316;2023-04-24T03:22:28;11.15;;;9.95;;
10715;SDS011;5409;42.620;23.316;2023-04-24T03:24:55;10.60;;;9.32;;
10715;SDS011;5409;42.620;23.316;2023-04-24T03:27:22;13.43;;;9.30;;
10715;SDS011;5409;42.620;23.316;2023-04-24T03:29:48;13.65;;;9.57;;
10715;SDS011;5409;42.620;23.316;2023-04-24T03:32:18;11.73;;;9.77;;
10715;SDS011;5409;42.620;23.316;2023-04-24T03:34:45;12.85;;;10.48;;
10715;SDS011;5409;42.620;23.316;2023-04-24T03:37:12;10.85;;;9.27;;
10715;SDS011;5409;42.620;23.316;2023-04-24T03:39:40;10.68;;;9.57;;
10715;SDS011;5409;42.620;23.316;2023-04-24T03:42:07;11.40;;;10.20;;
10715;SDS011;5409;42.620;23.316;2023-04-24T03:44:34;15.25;;;9.68;;
10715;SDS011;5409;42.620;23.316;2023-04-24T03:47:00;11.30;;;10.10;;
10715;SDS011;5409;42.620;23.316;2023-04-24T03:49:27;10.93;;;9.73;;
10715;SDS011;5409;42.620;23.316;2023-04-24T03:51:54;11.63;;;10.13;;
10715;SDS011;5409;42.620;23.316;2023-04-24T03:54:21;15.10;;;10.60;;
10715;SDS011;5409;42.620;23.316;2023-04-24T03:56:49;14.13;;;11.10;;
10715;SDS011;5409;42.620;23.316;2023-04-24T03:59:16;14.25;;;10.65;;
10715;SDS011;5409;42.620;23.316;2023-04-24T04:01:43;12.50;;;10.25;;
10715;SDS011;5409;42.620;23.316;2023-04-24T04:04:10;13.02;;;10.68;;
10715;SDS011;5409;42.620;23.316;2023-04-24T04:06:37;13.18;;;11.68;;
10715;SDS011;5409;42.620;23.316;2023-04-24T04:09:04;15.77;;;10.63;;
10715;SDS011;5409;42.620;23.316;2023-04-24T04:11:32;14.65;;;10.27;;
10715;SDS011;5409;42.620;23.316;2023-04-24T04:14:00;12.60;;;10.15;;
10715;SDS011;5409;42.620;23.316;2023-04-24T04:16:27;13.27;;;10.90;;
10715;SDS011;5409;42.620;23.316;2023-04-24T04:18:54;14.40;;;10.77;;
10715;SDS011;5409;42.620;23.316;2023-04-24T04:21:21;12.30;;;10.75;;
10715;SDS011;5409;42.620;23.316;2023-04-24T04:23:48;11.88;;;10.38;;
10715;SDS011;5409;42.620;23.316;2023-04-24T04:26:15;11.38;;;10.18;;
10715;SDS011;5409;42.620;23.316;2023-04-24T04:28:41;11.52;;;10.32;;
10715;SDS011;5409;42.620;23.316;2023-04-24T04:31:11;14.13;;;10.98;;
10715;SDS011;5409;42.620;23.316;2023-04-24T04:33:38;13.05;;;11.50;;
10715;SDS011;5409;42.620;23.316;2023-04-24T04:36:05;13.77;;;10.60;;
10715;SDS011;5409;42.620;23.316;2023-04-24T04:38:32;12.65;;;11.35;;
10715;SDS011;5409;42.620;23.316;2023-04-24T04:41:00;12.10;;;9.93;;
10715;SDS011;5409;42.620;23.316;2023-04-24T04:43:27;14.98;;;10.77;;
10715;SDS011;5409;42.620;23.316;2023-04-24T04:45:54;12.70;;;10.68;;
10715;SDS011;5409;42.620;23.316;2023-04-24T04:48:22;12.80;;;11.45;;
10715;SDS011;5409;42.620;23.316;2023-04-24T04:50:49;15.18;;;12.95;;
10715;SDS011;5409;42.620;23.316;2023-04-24T04:53:16;14.75;;;13.05;;
10715;SDS011;5409;42.620;23.316;2023-04-24T04:55:42;13.93;;;12.48;;
10715;SDS011;5409;42.620;23.316;2023-04-24T04:58:09;12.43;;;10.98;;
10715;SDS011;5409;42.620;23.316;2023-04-24T05:00:36;13.95;;;11.00;;
10715;SDS011;5409;42.620;23.316;2023-04-24T05:03:03;12.48;;;11.27;;
10715;SDS011;5409;42.620;23.316;2023-04-24T05:05:31;13.63;;;10.57;;
10715;SDS011;5409;42.620;23.316;2023-04-24T05:07:58;12.77;;;10.40;;
10715;SDS011;5409;42.620;23.316;2023-04-24T05:10:25;11.45;;;10.30;;
10715;SDS011;5409;42.620;23.316;2023-04-24T05:12:51;11.10;;;10.00;;
10715;SDS011;5409;42.620;23.316;2023-04-24T05:15:18;11.55;;;10.00;;
10715;SDS011;5409;42.620;23.316;2023-04-24T05:17:45;12.50;;;10.15;;
10715;SDS011;5409;42.620;23.316;2023-04-24T05:20:12;14.00;;;10.23;;
10715;SDS011;5409;42.620;23.316;2023-04-24T05:22:40;14.70;;;10.95;;
10715;SDS011;5409;42.620;23.316;2023-04-24T05:25:07;15.32;;;10.60;;
10715;SDS011;5409;42.620;23.316;2023-04-24T05:27:34;13.20;;;10.90;;
10715;SDS011;5409;42.620;23.316;2023-04-24T05:30:01;15.63;;;11.52;;
10715;SDS011;5409;42.620;23.316;2023-04-24T05:32:28;15.88;;;11.98;;
10715;SDS011;5409;42.620;23.316;2023-04-24T05:34:55;13.57;;;11.18;;
10715;SDS011;5409;42.620;23.316;2023-04-24T05:37:21;13.00;;;10.85;;
10715;SDS011;5409;42.620;23.316;2023-04-24T05:39:50;12.85;;;10.82;;
10715;SDS011;5409;42.620;23.316;2023-04-24T05:42:16;12.98;;;10.15;;
10715;SDS011;5409;42.620;23.316;2023-04-24T05:44:43;20.65;;;12.82;;
10715;SDS011;5409;42.620;23.316;2023-04-24T05:47:10;17.25;;;11.68;;
10715;SDS011;5409;42.620;23.316;2023-04-24T05:49:36;12.05;;;10.80;;
10715;SDS011;5409;42.620;23.316;2023-04-24T05:52:03;14.23;;;11.30;;
10715;SDS011;5409;42.620;23.316;2023-04-24T05:54:31;10.05;;;8.98;;
10715;SDS011;5409;42.620;23.316;2023-04-24T05:56:59;10.27;;;6.97;;
10715;SDS011;5409;42.620;23.316;2023-04-24T05:59:29;7.20;;;6.47;;
10715;SDS011;5409;42.620;23.316;2023-04-24T06:01:56;7.30;;;6.53;;
10715;SDS011;5409;42.620;23.316;2023-04-24T06:04:22;9.07;;;7.43;;
10715;SDS011;5409;42.620;23.316;2023-04-24T06:06:49;7.18;;;5.53;;
10715;SDS011;5409;42.620;23.316;2023-04-24T06:09:20;6.75;;;5.70;;
10715;SDS011;5409;42.620;23.316;2023-04-24T06:11:47;6.03;;;4.72;;
10715;SDS011;5409;42.620;23.316;2023-04-24T06:14:16;6.05;;;5.38;;
10715;SDS011;5409;42.620;23.316;2023-04-24T06:16:43;8.40;;;5.90;;
10715;SDS011;5409;42.620;23.316;2023-04-24T06:19:09;16.20;;;8.15;;
10715;SDS011;5409;42.620;23.316;2023-04-24T06:21:36;11.48;;;9.45;;
10715;SDS011;5409;42.620;23.316;2023-04-24T06:24:03;13.20;;;9.77;;
10715;SDS011;5409;42.620;23.316;2023-04-24T06:26:29;13.73;;;9.27;;
10715;SDS011;5409;42.620;23.316;2023-04-24T06:28:56;13.57;;;10.32;;
10715;SDS011;5409;42.620;23.316;2023-04-24T06:31:26;11.77;;;9.40;;
10715;SDS011;5409;42.620;23.316;2023-04-24T06:33:53;12.35;;;9.90;;
10715;SDS011;5409;42.620;23.316;2023-04-24T06:36:20;15.55;;;10.75;;
10715;SDS011;5409;42.620;23.316;2023-04-24T06:38:46;14.70;;;8.70;;
10715;SDS011;5409;42.620;23.316;2023-04-24T06:41:13;7.57;;;6.88;;
10715;SDS011;5409;42.620;23.316;2023-04-24T06:43:40;7.43;;;6.60;;
10715;SDS011;5409;42.620;23.316;2023-04-24T06:46:07;11.38;;;7.85;;
10715;SDS011;5409;42.620;23.316;2023-04-24T06:48:35;12.90;;;8.93;;
10715;SDS011;5409;42.620;23.316;2023-04-24T06:51:02;14.60;;;9.00;;
10715;SDS011;5409;42.620;23.316;2023-04-24T06:53:28;14.57;;;9.32;;
10715;SDS011;5409;42.620;23.316;2023-04-24T06:55:55;13.18;;;8.90;;
10715;SDS011;5409;42.620;23.316;2023-04-24T06:58:22;10.52;;;8.55;;
10715;SDS011;5409;42.620;23.316;2023-04-24T07:00:49;10.77;;;8.13;;
10715;SDS011;5409;42.620;23.316;2023-04-24T07:03:15;9.93;;;8.05;;
10715;SDS011;5409;42.620;23.316;2023-04-24T07:05:43;12.93;;;8.88;;
10715;SDS011;5409;42.620;23.316;2023-04-24T07:08:11;11.57;;;8.02;;
10715;SDS011;5409;42.620;23.316;2023-04-24T07:10:38;12.63;;;7.07;;
10715;SDS011;5409;42.620;23.316;2023-04-24T07:13:05;6.57;;;5.28;;
10715;SDS011;5409;42.620;23.316;2023-04-24T07:15:33;9.23;;;4.78;;
10715;SDS011;5409;42.620;23.316;2023-04-24T07:18:00;6.45;;;5.45;;
10715;SDS011;5409;42.620;23.316;2023-04-24T07:20:27;9.35;;;5.15;;
10715;SDS011;5409;42.620;23.316;2023-04-24T07:22:55;6.00;;;5.38;;
10715;SDS011;5409;42.620;23.316;2023-04-24T07:25:22;5.55;;;4.40;;
10715;SDS011;5409;42.620;23.316;2023-04-24T07:27:48;7.32;;;5.57;;
10715;SDS011;5409;42.620;23.316;2023-04-24T07:30:15;11.63;;;5.80;;
10715;SDS011;5409;42.620;23.316;2023-04-24T07:32:42;7.30;;;5.20;;
10715;SDS011;5409;42.620;23.316;2023-04-24T07:35:09;13.20;;;5.35;;
10715;SDS011;5409;42.620;23.316;2023-04-24T07:37:35;8.32;;;4.85;;
10715;SDS011;5409;42.620;23.316;2023-04-24T07:40:04;6.63;;;4.78;;
10715;SDS011;5409;42.620;23.316;2023-04-24T07:42:32;6.20;;;4.85;;
10715;SDS011;5409;42.620;23.316;2023-04-24T07:44:59;7.57;;;5.20;;
10715;SDS011;5409;42.620;23.316;2023-04-24T07:47:26;8.77;;;4.75;;
10715;SDS011;5409;42.620;23.316;2023-04-24T07:49:53;7.20;;;4.90;;
10715;SDS011;5409;42.620;23.316;2023-04-24T07:52:20;6.95;;;5.03;;
10715;SDS011;5409;42.620;23.316;2023-04-24T07:54:46;10.82;;;5.15;;
10715;SDS011;5409;42.620;23.316;2023-04-24T07:57:16;5.97;;;4.88;;
10715;SDS011;5409;42.620;23.316;2023-04-24T07:59:42;9.77;;;5.50;;
10715;SDS011;5409;42.620;23.316;2023-04-24T08:02:09;8.05;;;5.53;;
10715;SDS011;5409;42.620;23.316;2023-04-24T08:04:36;8.38;;;5.10;;
10715;SDS011;5409;42.620;23.316;2023-04-24T08:07:03;11.88;;;5.50;;
10715;SDS011;5409;42.620;23.316;2023-04-24T08:09:30;8.82;;;5.45;;
10715;SDS011;5409;42.620;23.316;2023-04-24T08:11:57;8.55;;;5.28;;
10715;SDS011;5409;42.620;23.316;2023-04-24T08:14:25;8.02;;;5.22;;
10715;SDS011;5409;42.620;23.316;2023-04-24T08:16:53;8.38;;;4.97;;
10715;SDS011;5409;42.620;23.316;2023-04-24T08:19:21;7.32;;;5.25;;
10715;SDS011;5409;42.620;23.316;2023-04-24T08:21:47;6.90;;;5.30;;
10715;SDS011;5409;42.620;23.316;2023-04-24T08:24:14;10.80;;;5.30;;
10715;SDS011;5409;42.620;23.316;2023-04-24T08:26:41;8.35;;;5.80;;
10715;SDS011;5409;42.620;23.316;2023-04-24T08:29:08;6.75;;;5.47;;
10715;SDS011;5409;42.620;23.316;2023-04-24T08:31:36;9.32;;;5.72;;
10715;SDS011;5409;42.620;23.316;2023-04-24T08:34:02;9.20;;;5.18;;
10715;SDS011;5409;42.620;23.316;2023-04-24T08:36:29;10.77;;;5.97;;
10715;SDS011;5409;42.620;23.316;2023-04-24T08:38:57;8.95;;;6.30;;
10715;SDS011;5409;42.620;23.316;2023-04-24T08:41:23;8.63;;;6.03;;
10715;SDS011;5409;42.620;23.316;2023-04-24T08:43:51;9.25;;;6.43;;
10715;SDS011;5409;42.620;23.316;2023-04-24T08:46:18;11.60;;;6.40;;
10715;SDS011;5409;42.620;23.316;2023-04-24T08:48:47;8.15;;;6.30;;
10715;SDS011;5409;42.620;23.316;2023-04-24T08:51:15;7.63;;;5.65;;
10715;SDS011;5409;42.620;23.316;2023-04-24T08:53:43;14.65;;;6.07;;
10715;SDS011;5409;42.620;23.316;2023-04-24T08:56:10;9.50;;;5.93;;
10715;SDS011;5409;42.620;23.316;2023-04-24T08:58:37;7.32;;;5.85;;
10715;SDS011;5409;42.620;23.316;2023-04-24T09:01:05;6.90;;;6.05;;
10715;SDS011;5409;42.620;23.316;2023-04-24T09:03:32;8.65;;;6.05;;
10715;SDS011;5409;42.620;23.316;2023-04-24T09:06:02;9.70;;;6.28;;
10715;SDS011;5409;42.620;23.316;2023-04-24T09:08:30;10.85;;;5.72;;
10715;SDS011;5409;42.620;23.316;2023-04-24T09:10:58;7.47;;;6.10;;
10715;SDS011;5409;42.620;23.316;2023-04-24T09:13:27;9.43;;;5.60;;
10715;SDS011;5409;42.620;23.316;2023-04-24T09:15:55;9.10;;;6.40;;
10715;SDS011;5409;42.620;23.316;2023-04-24T09:18:22;10.00;;;6.28;;
10715;SDS011;5409;42.620;23.316;2023-04-24T09:20:58;8.63;;;5.60;;
10715;SDS011;5409;42.620;23.316;2023-04-24T09:23:31;12.90;;;5.40;;
10715;SDS011;5409;42.620;23.316;2023-04-24T09:25:59;15.30;;;6.78;;
10715;SDS011;5409;42.620;23.316;2023-04-24T09:28:29;9.75;;;6.40;;
10715;SDS011;5409;42.620;23.316;2023-04-24T09:31:04;7.03;;;5.72;;
10715;SDS011;5409;42.620;23.316;2023-04-24T09:33:32;7.43;;;5.75;;
10715;SDS011;5409;42.620;23.316;2023-04-24T09:35:59;20.13;;;6.47;;
10715;SDS011;5409;42.620;23.316;2023-04-24T09:38:32;7.25;;;4.80;;
10715;SDS011;5409;42.620;23.316;2023-04-24T09:41:00;10.05;;;5.90;;
10715;SDS011;5409;42.620;23.316;2023-04-24T09:43:29;7.88;;;4.63;;
10715;SDS011;5409;42.620;23.316;2023-04-24T09:45:56;10.27;;;5.50;;
10715;SDS011;5409;42.620;23.316;2023-04-24T09:48:30;6.10;;;5.40;;
10715;SDS011;5409;42.620;23.316;2023-04-24T09:50:58;6.38;;;5.15;;
10715;SDS011;5409;42.620;23.316;2023-04-24T09:53:25;5.65;;;5.03;;
10715;SDS011;5409;42.620;23.316;2023-04-24T09:55:55;9.38;;;5.18;;
10715;SDS011;5409;42.620;23.316;2023-04-24T09:58:24;7.38;;;5.10;;
10715;SDS011;5409;42.620;23.316;2023-04-24T10:00:55;9.70;;;4.70;;
10715;SDS011;5409;42.620;23.316;2023-04-24T10:03:23;8.60;;;4.43;;
10715;SDS011;5409;42.620;23.316;2023-04-24T10:05:52;7.03;;;4.50;;
10715;SDS011;5409;42.620;23.316;2023-04-24T10:08:20;7.18;;;4.20;;
10715;SDS011;5409;42.620;23.316;2023-04-24T10:10:47;5.38;;;4.18;;
10715;SDS011;5409;42.620;23.316;2023-04-24T10:13:15;5.68;;;4.72;;
10715;SDS011;5409;42.620;23.316;2023-04-24T10:15:42;6.18;;;4.00;;
10715;SDS011;5409;42.620;23.316;2023-04-24T10:18:10;7.57;;;4.57;;
10715;SDS011;5409;42.620;23.316;2023-04-24T10:20:37;5.05;;;3.92;;
10715;SDS011;5409;42.620;23.316;2023-04-24T10:23:06;13.40;;;5.50;;
10715;SDS011;5409;42.620;23.316;2023-04-24T10:25:33;6.05;;;4.10;;
10715;SDS011;5409;42.620;23.316;2023-04-24T10:28:01;9.48;;;4.20;;
10715;SDS011;5409;42.620;23.316;2023-04-24T10:30:31;4.97;;;4.40;;
10715;SDS011;5409;42.620;23.316;2023-04-24T10:33:01;7.13;;;4.20;;
10715;SDS011;5409;42.620;23.316;2023-04-24T10:35:30;7.55;;;4.28;;
10715;SDS011;5409;42.620;23.316;2023-04-24T10:37:58;8.18;;;3.67;;
10715;SDS011;5409;42.620;23.316;2023-04-24T10:40:30;6.95;;;3.95;;
10715;SDS011;5409;42.620;23.316;2023-04-24T10:42:58;5.40;;;3.25;;
10715;SDS011;5409;42.620;23.316;2023-04-24T10:45:25;4.80;;;3.08;;
10715;SDS011;5409;42.620;23.316;2023-04-24T10:47:54;5.55;;;3.35;;
10715;SDS011;5409;42.620;23.316;2023-04-24T10:50:24;7.45;;;3.70;;
10715;SDS011;5409;42.620;23.316;2023-04-24T10:52:52;6.80;;;3.30;;
10715;SDS011;5409;42.620;23.316;2023-04-24T10:58:11;3.92;;;3.40;;
10715;SDS011;5409;42.620;23.316;2023-04-24T11:00:40;5.32;;;3.28;;
10715;SDS011;5409;42.620;23.316;2023-04-24T11:05:58;25.27;;;5.07;;
10715;SDS011;5409;42.620;23.316;2023-04-24T11:08:28;6.93;;;3.95;;
10715;SDS011;5409;42.620;23.316;2023-04-24T11:10:57;4.43;;;3.45;;
10715;SDS011;5409;42.620;23.316;2023-04-24T11:16:29;5.30;;;4.13;;
10715;SDS011;5409;42.620;23.316;2023-04-24T11:19:03;4.20;;;3.00;;
10715;SDS011;5409;42.620;23.316;2023-04-24T11:21:32;5.05;;;3.13;;
10715;SDS011;5409;42.620;23.316;2023-04-24T11:24:24;5.25;;;3.30;;
10715;SDS011;5409;42.620;23.316;2023-04-24T11:26:53;9.25;;;3.70;;
10715;SDS011;5409;42.620;23.316;2023-04-24T11:29:21;4.28;;;2.95;;
10715;SDS011;5409;42.620;23.316;2023-04-24T11:31:48;5.18;;;2.60;;
10715;SDS011;5409;42.620;23.316;2023-04-24T11:34:18;4.53;;;3.25;;
10715;SDS011;5409;42.620;23.316;2023-04-24T11:36:45;9.65;;;4.05;;
10715;SDS011;5409;42.620;23.316;2023-04-24T11:39:12;5.32;;;3.70;;
10715;SDS011;5409;42.620;23.316;2023-04-24T11:41:39;5.47;;;4.82;;
10715;SDS011;5409;42.620;23.316;2023-04-24T11:44:07;7.15;;;4.90;;
10715;SDS011;5409;42.620;23.316;2023-04-24T11:46:35;7.13;;;4.78;;
10715;SDS011;5409;42.620;23.316;2023-04-24T11:49:03;6.35;;;5.75;;
10715;SDS011;5409;42.620;23.316;2023-04-24T11:51:31;6.72;;;5.95;;
10715;SDS011;5409;42.620;23.316;2023-04-24T11:53:58;8.13;;;5.53;;
10715;SDS011;5409;42.620;23.316;2023-04-24T11:56:25;7.53;;;6.22;;
10715;SDS011;5409;42.620;23.316;2023-04-24T11:58:52;7.50;;;6.70;;
10715;SDS011;5409;42.620;23.316;2023-04-24T12:01:19;6.45;;;5.80;;
10715;SDS011;5409;42.620;23.316;2023-04-24T12:03:47;6.13;;;5.15;;
10715;SDS011;5409;42.620;23.316;2023-04-24T12:06:16;4.97;;;4.57;;
10715;SDS011;5409;42.620;23.316;2023-04-24T12:08:46;5.80;;;4.75;;
10715;SDS011;5409;42.620;23.316;2023-04-24T12:11:14;4.50;;;4.10;;
10715;SDS011;5409;42.620;23.316;2023-04-24T12:13:43;4.63;;;4.03;;
10715;SDS011;5409;42.620;23.316;2023-04-24T12:16:10;5.95;;;3.85;;
10715;SDS011;5409;42.620;23.316;2023-04-24T12:18:41;5.47;;;3.45;;
10715;SDS011;5409;42.620;23.316;2023-04-24T12:21:15;4.30;;;3.30;;
10715;SDS011;5409;42.620;23.316;2023-04-24T12:23:43;3.80;;;3.25;;
10715;SDS011;5409;42.620;23.316;2023-04-24T12:26:12;5.57;;;3.45;;
10715;SDS011;5409;42.620;23.316;2023-04-24T12:28:42;4.72;;;3.40;;
10715;SDS011;5409;42.620;23.316;2023-04-24T12:31:09;4.15;;;3.80;;
10715;SDS011;5409;42.620;23.316;2023-04-24T12:33:35;5.38;;;4.18;;
10715;SDS011;5409;42.620;23.316;2023-04-24T12:36:03;4.75;;;4.25;;
10715;SDS011;5409;42.620;23.316;2023-04-24T12:38:31;4.72;;;3.55;;
10715;SDS011;5409;42.620;23.316;2023-04-24T12:41:06;4.93;;;4.47;;
10715;SDS011;5409;42.620;23.316;2023-04-24T12:43:35;5.30;;;4.43;;
10715;SDS011;5409;42.620;23.316;2023-04-24T12:46:02;5.45;;;4.25;;
10715;SDS011;5409;42.620;23.316;2023-04-24T12:48:29;7.80;;;3.95;;
10715;SDS011;5409;42.620;23.316;2023-04-24T12:50:56;4.35;;;3.63;;
10715;SDS011;5409;42.620;23.316;2023-04-24T12:53:26;4.18;;;3.40;;
10715;SDS011;5409;42.620;23.316;2023-04-24T12:55:54;3.92;;;3.55;;
10715;SDS011;5409;42.620;23.316;2023-04-24T12:58:21;4.28;;;3.88;;
10715;SDS011;5409;42.620;23.316;2023-04-24T13:00:49;3.83;;;3.40;;
10715;SDS011;5409;42.620;23.316;2023-04-24T13:03:16;3.75;;;2.83;;
10715;SDS011;5409;42.620;23.316;2023-04-24T13:05:44;3.78;;;2.90;;
10715;SDS011;5409;42.620;23.316;2023-04-24T13:08:10;3.78;;;3.10;;
10715;SDS011;5409;42.620;23.316;2023-04-24T13:10:38;3.13;;;2.90;;
10715;SDS011;5409;42.620;23.316;2023-04-24T13:13:05;3.80;;;3.13;;
10715;SDS011;5409;42.620;23.316;2023-04-24T13:15:32;9.18;;;3.17;;
10715;SDS011;5409;42.620;23.316;2023-04-24T13:18:00;3.88;;;3.20;;
10715;SDS011;5409;42.620;23.316;2023-04-24T13:20:27;5.47;;;3.17;;
10715;SDS011;5409;42.620;23.316;2023-04-24T13:22:54;3.65;;;2.53;;
10715;SDS011;5409;42.620;23.316;2023-04-24T13:25:21;5.22;;;3.58;;
10715;SDS011;5409;42.620;23.316;2023-04-24T13:27:48;3.17;;;2.78;;
10715;SDS011;5409;42.620;23.316;2023-04-24T13:30:15;3.28;;;2.95;;
10715;SDS011;5409;42.620;23.316;2023-04-24T13:32:42;3.75;;;2.80;;
10715;SDS011;5409;42.620;23.316;2023-04-24T13:35:11;4.65;;;3.08;;
10715;SDS011;5409;42.620;23.316;2023-04-24T13:37:37;3.40;;;2.95;;
10715;SDS011;5409;42.620;23.316;2023-04-24T13:40:05;3.30;;;3.00;;
10715;SDS011;5409;42.620;23.316;2023-04-24T13:42:32;4.72;;;2.72;;
10715;SDS011;5409;42.620;23.316;2023-04-24T13:44:59;4.13;;;2.60;;
10715;SDS011;5409;42.620;23.316;2023-04-24T13:47:26;5.25;;;2.38;;
10715;SDS011;5409;42.620;23.316;2023-04-24T13:49:53;6.22;;;2.88;;
10715;SDS011;5409;42.620;23.316;2023-04-24T13:52:21;4.93;;;2.97;;
10715;SDS011;5409;42.620;23.316;2023-04-24T13:54:48;3.20;;;2.90;;
10715;SDS011;5409;42.620;23.316;2023-04-24T13:57:14;5.00;;;3.25;;
10715;SDS011;5409;42.620;23.316;2023-04-24T13:59:42;4.30;;;2.90;;
10715;SDS011;5409;42.620;23.316;2023-04-24T14:02:08;3.75;;;3.13;;
10715;SDS011;5409;42.620;23.316;2023-04-24T14:04:35;2.67;;;2.45;;
10715;SDS011;5409;42.620;23.316;2023-04-24T14:07:02;3.88;;;2.45;;
10715;SDS011;5409;42.620;23.316;2023-04-24T14:09:30;5.40;;;2.50;;
10715;SDS011;5409;42.620;23.316;2023-04-24T14:11:57;5.03;;;3.03;;
10715;SDS011;5409;42.620;23.316;2023-04-24T14:14:24;5.85;;;2.80;;
10715;SDS011;5409;42.620;23.316;2023-04-24T14:16:50;4.57;;;2.72;;
10715;SDS011;5409;42.620;23.316;2023-04-24T14:19:17;5.15;;;2.40;;
10715;SDS011;5409;42.620;23.316;2023-04-24T14:21:44;2.60;;;2.40;;
10715;SDS011;5409;42.620;23.316;2023-04-24T14:24:11;2.60;;;2.40;;
10715;SDS011;5409;42.620;23.316;2023-04-24T14:26:39;2.92;;;2.65;;
10715;SDS011;5409;42.620;23.316;2023-04-24T14:29:05;3.22;;;2.20;;
10715;SDS011;5409;42.620;23.316;2023-04-24T14:31:32;4.47;;;2.60;;
10715;SDS011;5409;42.620;23.316;2023-04-24T14:33:59;4.35;;;2.40;;
10715;SDS011;5409;42.620;23.316;2023-04-24T14:36:26;4.65;;;2.72;;
10715;SDS011;5409;42.620;23.316;2023-04-24T14:38:53;3.53;;;2.95;;
10715;SDS011;5409;42.620;23.316;2023-04-24T14:41:19;3.00;;;2.72;;
10715;SDS011;5409;42.620;23.316;2023-04-24T14:43:47;4.85;;;2.65;;
10715;SDS011;5409;42.620;23.316;2023-04-24T14:46:14;3.80;;;2.90;;
10715;SDS011;5409;42.620;23.316;2023-04-24T14:48:41;4.13;;;2.40;;
10715;SDS011;5409;42.620;23.316;2023-04-24T14:51:08;5.10;;;2.83;;